createdAt,value
2022-08-20T00:02:14.530Z,95774.97
2022-08-20T00:04:44.275Z,95767.44
2022-08-20T00:07:12.569Z,95777.88
2022-08-20T00:09:41.714Z,95772.13
2022-08-20T00:12:10.695Z,95777.75
2022-08-20T00:14:39.640Z,95781.53
2022-08-20T00:17:07.801Z,95784.50
2022-08-20T00:19:36.007Z,95786.72
2022-08-20T00:22:05.783Z,95778.81
2022-08-20T00:24:35.056Z,95781.81
2022-08-20T00:27:03.486Z,95774.00
2022-08-20T00:29:32.004Z,95767.66
2022-08-20T00:32:00.730Z,95777.69
2022-08-20T00:34:29.327Z,95775.34
2022-08-20T00:36:57.618Z,95766.56
2022-08-20T00:39:27.207Z,95765.13
2022-08-20T00:41:55.373Z,95728.09
2022-08-20T00:44:24.410Z,95758.97
2022-08-20T00:46:53.615Z,95759.16
2022-08-20T00:49:24.982Z,95757.72
2022-08-20T00:51:58.127Z,95742.66
2022-08-20T00:54:31.446Z,95757.53
2022-08-20T00:57:03.567Z,95753.44
2022-08-20T00:59:33.517Z,95760.25
2022-08-20T01:02:02.471Z,95750.22
2022-08-20T01:04:35.160Z,95772.56
2022-08-20T01:07:05.382Z,95758.75
2022-08-20T01:09:57.986Z,95758.88
2022-08-20T01:12:24.528Z,95776.44
2022-08-20T01:14:53.391Z,95777.03
2022-08-20T01:17:24.734Z,95770.03
2022-08-20T01:19:56.032Z,95766.03
2022-08-20T01:22:58.853Z,95736.28
2022-08-20T01:25:34.310Z,95749.47
2022-08-20T01:28:04.703Z,95753.56
2022-08-20T01:30:33.661Z,95754.25
2022-08-20T01:33:02.562Z,95763.97
2022-08-20T01:35:30.916Z,95759.00
2022-08-20T01:37:59.077Z,95767.88
2022-08-20T01:40:40.911Z,95742.66
2022-08-20T01:43:10.472Z,95746.44
2022-08-20T01:45:41.258Z,95742.31
2022-08-20T01:48:09.606Z,95737.44
2022-08-20T01:50:41.939Z,95741.75
2022-08-20T01:53:16.643Z,95738.94
2022-08-20T01:55:44.905Z,95720.56
2022-08-20T01:58:14.691Z,95727.41
2022-08-20T02:00:43.076Z,95727.09
2022-08-20T02:03:11.395Z,95707.28
2022-08-20T02:05:39.594Z,95728.81
2022-08-20T02:08:07.755Z,95725.44
2022-08-20T02:10:37.043Z,95717.53
2022-08-20T02:13:07.738Z,95719.81
2022-08-20T02:15:39.823Z,95709.94
2022-08-20T02:18:16.107Z,95709.50
2022-08-20T02:20:44.866Z,95712.28
2022-08-20T02:23:15.604Z,95706.13
2022-08-20T02:25:45.762Z,95710.06
2022-08-20T02:28:16.613Z,95710.97
2022-08-20T02:30:49.558Z,95708.03
2022-08-20T02:33:20.071Z,95701.97
2022-08-20T02:35:53.246Z,95703.22
2022-08-20T02:38:21.450Z,95701.25
2022-08-20T02:40:50.703Z,95691.38
2022-08-20T02:43:20.186Z,95698.41
2022-08-20T02:45:49.886Z,95695.78
2022-08-20T02:48:21.008Z,95691.50
2022-08-20T02:50:52.837Z,95696.84
2022-08-20T02:53:21.331Z,95693.53
2022-08-20T02:55:49.911Z,95701.97
2022-08-20T02:58:18.356Z,95698.13
2022-08-20T03:00:46.733Z,95691.41
2022-08-20T03:03:20.291Z,95643.16
2022-08-20T03:05:48.445Z,95684.41
2022-08-20T03:08:17.609Z,95695.97
2022-08-20T03:10:47.365Z,95689.34
2022-08-20T03:13:17.493Z,95659.19
2022-08-20T03:15:47.346Z,95703.38
2022-08-20T03:18:18.129Z,95705.19
2022-08-20T03:20:46.469Z,95698.75
2022-08-20T03:23:21.405Z,95690.81
2022-08-20T03:25:49.757Z,95699.91
2022-08-20T03:28:19.092Z,95692.72
2022-08-20T03:30:47.973Z,95699.75
2022-08-20T03:33:17.565Z,95691.13
2022-08-20T03:35:45.785Z,95689.25
2022-08-20T03:38:15.442Z,95683.44
2022-08-20T03:40:43.758Z,95682.75
2022-08-20T03:43:12.062Z,95683.91
2022-08-20T03:45:42.017Z,95676.28
2022-08-20T03:48:11.810Z,95698.78
2022-08-20T03:50:42.603Z,95698.34
2022-08-20T03:53:13.078Z,95695.88
2022-08-20T03:55:45.355Z,95699.66
2022-08-20T03:58:21.849Z,95714.38
2022-08-20T04:01:02.331Z,95720.16
2022-08-20T04:03:30.596Z,95726.72
2022-08-20T04:06:00.287Z,95722.03
2022-08-20T04:08:30.637Z,95731.97
2022-08-20T04:10:59.790Z,95734.84
2022-08-20T04:13:29.424Z,95740.13
2022-08-20T04:15:59.166Z,95735.94
2022-08-20T04:18:27.464Z,95731.38
2022-08-20T04:20:55.910Z,95715.63
2022-08-20T04:23:25.462Z,95711.66
2022-08-20T04:25:56.620Z,95708.72
2022-08-20T04:28:28.779Z,95721.78
2022-08-20T04:30:59.098Z,95716.41
2022-08-20T04:33:35.249Z,95676.66
2022-08-20T04:36:06.190Z,95721.25
2022-08-20T04:38:47.832Z,95723.75
2022-08-20T04:41:22.709Z,95724.47
2022-08-20T04:43:53.113Z,95735.66
2022-08-20T04:46:22.136Z,95741.22
2022-08-20T04:48:50.768Z,95742.38
2022-08-20T04:51:22.932Z,95742.91
2022-08-20T04:53:54.454Z,95737.47
2022-08-20T04:56:24.356Z,95762.28
2022-08-20T04:58:53.225Z,95753.59
2022-08-20T05:01:21.997Z,95761.09
2022-08-20T05:03:50.484Z,95748.09
2022-08-20T05:06:18.818Z,95746.66
2022-08-20T05:08:47.446Z,95745.69
2022-08-20T05:11:34.773Z,95749.72
2022-08-20T05:14:06.218Z,95743.38
2022-08-20T05:16:39.128Z,95742.84
2022-08-20T05:19:12.585Z,95643.38
2022-08-20T05:21:41.268Z,95749.38
2022-08-20T05:24:11.336Z,95747.56
2022-08-20T05:26:40.855Z,95769.88
2022-08-20T05:29:08.962Z,95761.72
2022-08-20T05:31:38.548Z,95760.91
2022-08-20T05:34:11.175Z,95771.22
2022-08-20T05:36:41.486Z,95775.91
2022-08-20T05:39:10.397Z,95759.69
2022-08-20T05:41:40.448Z,95778.31
2022-08-20T05:44:10.850Z,95764.06
2022-08-20T05:46:40.987Z,95770.41
2022-08-20T05:49:09.640Z,95806.69
2022-08-20T05:51:38.041Z,95808.59
2022-08-20T05:54:07.094Z,95799.25
2022-08-20T05:56:36.049Z,95797.59
2022-08-20T05:59:07.448Z,95781.63
2022-08-20T06:01:37.792Z,95778.34
2022-08-20T06:04:24.170Z,95783.16
2022-08-20T06:06:55.228Z,95789.25
2022-08-20T06:09:31.374Z,95795.53
2022-08-20T06:12:02.012Z,95786.38
2022-08-20T06:14:31.715Z,95794.16
2022-08-20T06:17:05.464Z,95786.47
2022-08-20T06:19:34.114Z,95796.69
2022-08-20T06:22:17.871Z,95790.78
2022-08-20T06:24:49.507Z,95803.31
2022-08-20T06:27:18.098Z,95809.03
2022-08-20T06:29:48.145Z,95793.44
2022-08-20T06:32:16.649Z,95798.28
2022-08-20T06:34:49.957Z,95802.84
2022-08-20T06:37:20.980Z,95813.88
2022-08-20T06:39:49.316Z,95841.41
2022-08-20T06:42:20.894Z,95810.09
2022-08-20T06:44:51.015Z,95840.13
2022-08-20T06:47:20.369Z,95846.59
2022-08-20T06:49:48.743Z,95852.88
2022-08-20T06:52:17.193Z,95824.38
2022-08-20T06:54:45.461Z,95839.88
2022-08-20T06:57:13.717Z,95842.47
2022-08-20T06:59:42.485Z,95851.44
2022-08-20T07:02:12.069Z,95851.44
2022-08-20T07:04:40.198Z,95851.81
2022-08-20T07:07:17.301Z,95850.25
2022-08-20T07:09:46.868Z,95843.06
2022-08-20T07:12:15.112Z,95853.38
2022-08-20T07:14:43.518Z,95844.09
2022-08-20T07:17:13.433Z,95861.63
2022-08-20T07:19:43.989Z,95862.34
2022-08-20T07:22:14.847Z,95861.91
2022-08-20T07:24:47.235Z,95857.22
2022-08-20T07:27:21.853Z,95864.91
2022-08-20T07:30:12.685Z,95870.75
2022-08-20T07:32:45.250Z,95867.91
2022-08-20T07:35:20.101Z,95863.91
2022-08-20T07:37:51.588Z,95858.63
2022-08-20T07:40:26.091Z,95873.53
2022-08-20T07:42:55.333Z,95833.31
2022-08-20T07:45:24.333Z,95866.44
2022-08-20T07:47:54.310Z,95858.38
2022-08-20T07:50:25.538Z,95854.38
2022-08-20T07:52:54.225Z,95831.72
2022-08-20T07:55:23.164Z,95848.22
2022-08-20T07:57:51.985Z,95800.97
2022-08-20T08:00:24.397Z,95854.56
2022-08-20T08:02:54.139Z,95847.28
2022-08-20T08:05:22.339Z,95852.94
2022-08-20T08:07:50.625Z,95851.75
2022-08-20T08:10:22.600Z,95858.97
2022-08-20T08:12:52.832Z,95782.94
2022-08-20T08:15:23.823Z,95832.44
2022-08-20T08:17:55.709Z,95845.91
2022-08-20T08:20:24.230Z,95872.66
2022-08-20T08:22:52.610Z,95864.00
2022-08-20T08:25:21.126Z,95883.97
2022-08-20T08:27:49.400Z,95880.00
2022-08-20T08:30:18.423Z,95885.03
2022-08-20T08:33:03.963Z,95854.72
2022-08-20T08:35:34.198Z,95887.34
2022-08-20T08:38:02.859Z,95900.34
2022-08-20T08:40:32.053Z,95884.06
2022-08-20T08:43:02.900Z,95892.72
2022-08-20T08:45:36.868Z,95898.84
2022-08-20T08:48:06.010Z,95881.06
2022-08-20T08:50:53.927Z,95894.59
2022-08-20T08:53:26.907Z,95893.94
2022-08-20T08:55:55.253Z,95874.22
2022-08-20T08:58:23.638Z,95884.50
2022-08-20T09:00:57.562Z,95887.44
2022-08-20T09:03:34.959Z,95876.28
2022-08-20T09:06:05.263Z,95885.09
2022-08-20T09:08:39.599Z,95863.41
2022-08-20T09:11:09.896Z,95893.41
2022-08-20T09:13:38.195Z,95868.38
2022-08-20T09:16:07.658Z,95899.97
2022-08-20T09:18:36.067Z,95894.69
2022-08-20T09:21:06.436Z,95886.16
2022-08-20T09:23:34.911Z,95887.66
2022-08-20T09:26:03.217Z,95895.44
2022-08-20T09:28:32.241Z,95899.31
2022-08-20T09:31:03.358Z,95858.41
2022-08-20T09:33:32.903Z,95893.88
2022-08-20T09:36:02.928Z,95891.06
2022-08-20T09:38:32.811Z,95909.13
2022-08-20T09:41:01.065Z,95900.75
2022-08-20T09:43:29.524Z,95904.69
2022-08-20T09:45:57.758Z,95911.44
2022-08-20T09:48:32.050Z,95925.34
2022-08-20T09:51:00.665Z,95918.75
2022-08-20T09:53:28.989Z,95888.81
2022-08-20T09:55:58.853Z,95922.31
2022-08-20T09:58:36.183Z,95909.25
2022-08-20T10:01:15.440Z,95930.69
2022-08-20T10:03:44.456Z,95920.44
2022-08-20T10:06:15.360Z,95917.84
2022-08-20T10:08:44.487Z,95903.22
2022-08-20T10:11:14.192Z,95916.47
2022-08-20T10:13:42.492Z,95873.19
2022-08-20T10:16:10.886Z,95872.69
2022-08-20T10:18:44.439Z,95884.72
2022-08-20T10:21:13.975Z,95827.78
2022-08-20T10:23:42.911Z,95887.72
2022-08-20T10:26:15.345Z,95895.53
2022-08-20T10:28:45.606Z,95886.84
2022-08-20T10:31:15.160Z,95879.91
2022-08-20T10:33:44.279Z,95892.41
2022-08-20T10:36:23.455Z,95866.13
2022-08-20T10:38:51.784Z,95865.91
2022-08-20T10:41:21.662Z,95888.97
2022-08-20T10:43:50.929Z,95889.38
2022-08-20T10:46:19.379Z,95889.38
2022-08-20T10:48:47.597Z,95885.25
2022-08-20T10:51:15.813Z,95903.22
2022-08-20T10:53:44.599Z,95890.13
2022-08-20T10:56:15.658Z,95900.19
2022-08-20T10:58:45.427Z,95903.28
2022-08-20T11:01:13.859Z,95890.94
2022-08-20T11:04:02.091Z,95911.34
2022-08-20T11:06:30.291Z,95902.09
2022-08-20T11:08:58.498Z,95909.22
2022-08-20T11:11:26.660Z,95924.31
2022-08-20T11:13:56.360Z,95907.22
2022-08-20T11:16:24.786Z,95868.38
2022-08-20T11:18:56.085Z,95912.13
2022-08-20T11:21:24.292Z,95900.91
2022-08-20T11:23:52.510Z,95899.84
2022-08-20T11:26:23.173Z,95902.28
2022-08-20T11:28:51.356Z,95897.03
2022-08-20T11:31:20.928Z,95877.56
2022-08-20T11:33:49.263Z,95903.94
2022-08-20T11:36:17.718Z,95913.66
2022-08-20T11:38:46.096Z,95916.81
2022-08-20T11:41:14.660Z,95901.88
2022-08-20T11:43:51.242Z,95896.31
2022-08-20T11:46:33.780Z,95894.28
2022-08-20T11:49:02.876Z,95893.44
2022-08-20T11:51:31.740Z,95899.94
2022-08-20T11:54:17.399Z,95882.59
2022-08-20T11:56:46.250Z,95907.28
2022-08-20T11:59:15.324Z,95906.44
2022-08-20T12:02:02.506Z,95909.22
2022-08-20T12:04:34.004Z,95894.56
2022-08-20T12:07:11.492Z,95875.06
2022-08-20T12:09:42.999Z,95907.81
2022-08-20T12:12:19.555Z,95907.19
2022-08-20T12:14:48.010Z,95910.09
2022-08-20T12:17:21.621Z,95915.63
2022-08-20T12:19:49.904Z,95921.41
2022-08-20T12:22:24.563Z,95928.28
2022-08-20T12:24:54.966Z,95896.84
2022-08-20T12:27:25.459Z,95886.03
2022-08-20T12:29:55.802Z,95924.94
2022-08-20T12:32:28.668Z,95922.31
2022-08-20T12:34:58.992Z,95916.63
2022-08-20T12:37:34.011Z,95921.28
2022-08-20T12:40:10.104Z,95922.47
2022-08-20T12:42:39.451Z,95911.84
2022-08-20T12:45:09.334Z,95906.91
2022-08-20T12:47:41.489Z,95910.81
2022-08-20T12:50:18.318Z,95911.25
2022-08-20T12:52:48.230Z,95914.25
2022-08-20T12:55:19.268Z,95908.84
2022-08-20T12:57:49.927Z,95905.88
2022-08-20T13:00:20.744Z,95921.31
2022-08-20T13:02:52.645Z,95925.28
2022-08-20T13:05:22.033Z,95911.00
2022-08-20T13:07:50.720Z,95919.56
2022-08-20T13:10:24.977Z,95917.94
2022-08-20T13:12:58.890Z,95911.66
2022-08-20T13:15:51.677Z,95913.28
2022-08-20T13:18:45.642Z,95927.09
2022-08-20T13:21:24.335Z,95921.03
2022-08-20T13:24:14.599Z,95912.34
2022-08-20T13:26:44.335Z,95919.59
2022-08-20T13:29:13.873Z,95919.22
2022-08-20T13:31:42.841Z,95911.16
2022-08-20T13:34:13.184Z,95915.38
2022-08-20T13:36:41.890Z,95908.84
2022-08-20T13:39:10.208Z,95913.16
2022-08-20T13:41:38.427Z,95906.06
2022-08-20T13:44:06.748Z,95905.31
2022-08-20T13:46:36.552Z,95902.88
2022-08-20T13:49:07.352Z,95895.13
2022-08-20T13:51:37.057Z,95891.44
2022-08-20T13:54:05.587Z,95888.94
2022-08-20T13:56:39.140Z,95878.09
2022-08-20T13:59:13.854Z,95875.56
2022-08-20T14:01:42.129Z,95873.84
2022-08-20T14:04:10.497Z,95876.19
2022-08-20T14:06:40.323Z,95866.63
2022-08-20T14:09:08.628Z,95870.63
2022-08-20T14:11:36.985Z,95865.88
2022-08-20T14:14:05.270Z,95871.91
2022-08-20T14:16:35.608Z,95880.19
2022-08-20T14:19:04.518Z,95867.75
2022-08-20T14:21:32.833Z,95857.16
2022-08-20T14:24:03.117Z,95858.09
2022-08-20T14:26:31.407Z,95861.06
2022-08-20T14:28:59.611Z,95862.16
2022-08-20T14:31:27.872Z,95866.88
2022-08-20T14:33:56.315Z,95871.03
2022-08-20T14:36:24.679Z,95867.16
2022-08-20T14:38:52.882Z,95834.06
2022-08-20T14:41:22.572Z,95868.97
2022-08-20T14:43:52.018Z,95875.13
2022-08-20T14:46:21.465Z,95878.94
2022-08-20T14:48:53.222Z,95876.13
2022-08-20T14:51:21.858Z,95886.88
2022-08-20T14:53:50.804Z,95845.47
2022-08-20T14:56:19.173Z,95885.59
2022-08-20T14:58:51.807Z,95884.19
2022-08-20T15:01:20.235Z,95890.63
2022-08-20T15:03:53.058Z,95881.31
2022-08-20T15:06:28.025Z,95865.91
2022-08-20T15:08:56.506Z,95870.84
2022-08-20T15:11:25.679Z,95892.50
2022-08-20T15:13:57.244Z,95884.69
2022-08-20T15:16:26.554Z,95882.09
2022-08-20T15:19:11.207Z,95879.88
2022-08-20T15:21:45.350Z,95878.25
2022-08-20T15:24:15.734Z,95888.84
2022-08-20T15:26:53.889Z,95877.34
2022-08-20T15:29:24.108Z,95884.63
2022-08-20T15:31:52.529Z,95873.16
2022-08-20T15:34:20.879Z,95879.09
2022-08-20T15:36:49.191Z,95880.91
2022-08-20T15:39:18.928Z,95881.88
2022-08-20T15:41:47.253Z,95856.03
2022-08-20T15:44:15.829Z,95882.72
2022-08-20T15:46:45.698Z,95882.47
2022-08-20T15:49:14.300Z,95876.09
2022-08-20T15:51:46.217Z,95884.59
2022-08-20T15:54:21.687Z,95888.00
2022-08-20T15:57:00.749Z,95901.97
2022-08-20T15:59:49.256Z,95895.94
2022-08-20T16:02:40.961Z,95891.94
2022-08-20T16:05:19.991Z,95890.19
2022-08-20T16:07:56.195Z,95892.50
2022-08-20T16:10:29.080Z,95902.09
2022-08-20T16:13:01.612Z,95863.59
2022-08-20T16:15:32.375Z,95877.16
2022-08-20T16:18:08.481Z,95914.22
2022-08-20T16:20:41.456Z,95906.88
2022-08-20T16:23:13.352Z,95908.38
2022-08-20T16:25:52.911Z,95903.78
2022-08-20T16:28:25.646Z,95920.91
2022-08-20T16:31:00.237Z,95922.44
2022-08-20T16:33:33.350Z,95920.22
2022-08-20T16:36:10.434Z,95925.16
2022-08-20T16:38:43.193Z,95932.66
2022-08-20T16:41:16.417Z,95926.88
2022-08-20T16:43:48.335Z,95935.00
2022-08-20T16:46:19.809Z,95928.84
2022-08-20T16:48:53.027Z,95940.84
2022-08-20T16:51:26.615Z,95909.38
2022-08-20T16:53:55.144Z,95944.34
2022-08-20T16:56:33.981Z,95946.56
2022-08-20T16:59:06.805Z,95946.84
2022-08-20T17:01:35.213Z,95947.22
2022-08-20T17:04:06.402Z,95948.84
2022-08-20T17:06:36.992Z,95948.41
2022-08-20T17:09:10.396Z,95953.34
2022-08-20T17:11:39.193Z,95959.94
2022-08-20T17:14:11.547Z,95965.66
2022-08-20T17:16:44.370Z,95960.19
2022-08-20T17:19:20.869Z,95967.00
2022-08-20T17:21:50.692Z,95964.47
2022-08-20T17:24:26.255Z,95936.78
2022-08-20T17:27:00.258Z,95965.47
2022-08-20T17:29:30.642Z,95972.66
2022-08-20T17:32:00.515Z,95968.41
2022-08-20T17:34:32.876Z,95967.78
2022-08-20T17:37:06.735Z,95973.88
2022-08-20T17:39:35.195Z,95973.25
2022-08-20T17:42:07.531Z,95985.09
2022-08-20T17:44:39.513Z,95986.88
2022-08-20T17:47:12.520Z,95993.69
2022-08-20T17:49:53.241Z,95987.91
2022-08-20T17:52:36.867Z,95985.56
2022-08-20T17:55:07.386Z,95989.94
2022-08-20T17:57:40.103Z,95994.31
2022-08-20T18:00:14.609Z,95991.91
2022-08-20T18:02:44.149Z,95988.22
2022-08-20T18:05:18.253Z,95988.53
2022-08-20T18:07:54.693Z,95989.88
2022-08-20T18:10:25.540Z,95989.59
2022-08-20T18:12:59.050Z,95986.84
2022-08-20T18:15:33.000Z,95981.38
2022-08-20T18:18:21.804Z,95993.88
2022-08-20T18:21:16.818Z,95985.03
2022-08-20T18:23:48.547Z,95986.53
2022-08-20T18:26:20.952Z,95982.84
2022-08-20T18:28:53.723Z,95999.22
2022-08-20T18:31:29.618Z,95994.38
2022-08-20T18:33:58.065Z,95984.16
2022-08-20T18:36:29.717Z,95983.34
2022-08-20T18:39:01.934Z,95986.22
2022-08-20T18:41:32.995Z,95990.16
2022-08-20T18:44:07.390Z,95972.00
2022-08-20T18:46:37.903Z,95993.06
2022-08-20T18:49:08.626Z,95997.44
2022-08-20T18:51:44.376Z,95996.59
2022-08-20T18:54:24.425Z,95991.59
2022-08-20T18:57:04.036Z,95993.22
2022-08-20T18:59:32.762Z,95999.22
2022-08-20T19:02:02.299Z,95993.84
2022-08-20T19:04:33.105Z,95992.25
2022-08-20T19:07:05.254Z,95996.59
2022-08-20T19:10:01.238Z,95999.91
2022-08-20T19:13:05.381Z,96002.78
2022-08-20T19:15:35.055Z,96001.16
2022-08-20T19:18:07.605Z,96006.81
2022-08-20T19:20:39.340Z,95998.56
2022-08-20T19:23:14.462Z,95973.34
2022-08-20T19:25:53.857Z,95973.00
2022-08-20T19:28:25.932Z,96001.81
2022-08-20T19:30:54.278Z,96002.44
2022-08-20T19:33:35.024Z,95999.38
2022-08-20T19:36:14.996Z,96001.81
2022-08-20T19:38:55.549Z,96000.53
2022-08-20T19:41:56.261Z,95995.53
2022-08-20T19:44:54.690Z,96000.25
2022-08-20T19:47:57.977Z,95992.97
2022-08-20T19:50:59.277Z,95993.44
2022-08-20T19:53:57.255Z,95994.28
2022-08-20T19:56:43.948Z,95989.53
2022-08-20T19:59:29.065Z,95983.13
2022-08-20T20:02:20.306Z,95991.81
2022-08-20T20:05:09.710Z,95987.75
2022-08-20T20:08:00.636Z,95985.16
2022-08-20T20:10:54.867Z,95989.53
2022-08-20T20:13:41.819Z,95999.91
2022-08-20T20:16:31.664Z,95990.22
2022-08-20T20:19:27.778Z,95995.22
2022-08-20T20:22:19.312Z,95992.63
2022-08-20T20:25:06.812Z,95984.25
2022-08-20T20:28:12.952Z,95996.53
2022-08-20T20:30:56.116Z,95987.00
2022-08-20T20:33:49.320Z,95985.53
2022-08-20T20:36:45.143Z,95950.00
2022-08-20T20:39:33.352Z,95984.78
2022-08-20T20:42:04.114Z,95986.56
2022-08-20T20:44:37.496Z,95987.56
2022-08-20T20:47:08.275Z,95992.44
2022-08-20T20:49:49.786Z,95988.25
2022-08-20T20:52:24.369Z,95985.19
2022-08-20T20:54:53.259Z,95993.13
2022-08-20T20:57:32.682Z,95984.19
2022-08-20T21:00:12.734Z,95991.97
2022-08-20T21:02:44.255Z,95961.56
2022-08-20T21:05:13.799Z,96000.88
2022-08-20T21:07:50.446Z,95998.75
2022-08-20T21:10:21.464Z,96003.59
2022-08-20T21:12:52.923Z,95967.19
2022-08-20T21:15:24.509Z,95995.53
2022-08-20T21:17:52.917Z,95996.69
2022-08-20T21:20:22.634Z,95995.34
2022-08-20T21:22:51.527Z,95983.41
2022-08-20T21:25:22.758Z,95989.69
2022-08-20T21:27:52.486Z,95996.84
2022-08-20T21:30:23.941Z,95994.88
2022-08-20T21:32:53.359Z,95987.91
2022-08-20T21:35:22.328Z,95980.63
2022-08-20T21:37:50.685Z,95994.69
2022-08-20T21:40:21.713Z,95986.63
2022-08-20T21:42:51.340Z,95994.69
2022-08-20T21:45:19.910Z,95966.41
2022-08-20T21:47:49.755Z,95994.72
2022-08-20T21:50:18.874Z,95994.59
2022-08-20T21:52:58.036Z,95987.13
2022-08-20T21:55:30.070Z,96004.31
2022-08-20T21:57:59.321Z,96005.13
2022-08-20T22:00:55.317Z,96007.38
2022-08-20T22:03:28.227Z,96005.91
2022-08-20T22:05:57.201Z,96002.84
2022-08-20T22:08:28.291Z,95998.63
2022-08-20T22:10:59.674Z,96003.13
2022-08-20T22:13:32.013Z,96003.47
2022-08-20T22:16:00.764Z,96003.47
2022-08-20T22:18:30.426Z,96014.66
2022-08-20T22:21:01.484Z,96007.34
2022-08-20T22:23:29.902Z,95994.91
2022-08-20T22:25:58.501Z,96007.03
2022-08-20T22:28:26.647Z,95992.78
2022-08-20T22:30:54.866Z,95997.94
2022-08-20T22:33:25.331Z,95991.94
2022-08-20T22:35:57.621Z,95967.34
2022-08-20T22:38:28.632Z,95988.25
2022-08-20T22:40:56.894Z,95984.50
2022-08-20T22:43:27.544Z,95988.09
2022-08-20T22:46:02.098Z,95990.19
2022-08-20T22:48:30.504Z,95991.31
2022-08-20T22:51:11.908Z,95995.19
2022-08-20T22:53:45.497Z,95988.56
2022-08-20T22:56:19.791Z,95989.03
2022-08-20T22:58:51.127Z,95981.91
2022-08-20T23:01:22.687Z,95981.28
2022-08-20T23:03:56.019Z,95970.44
2022-08-20T23:06:27.158Z,95969.97
2022-08-20T23:08:57.912Z,95966.72
2022-08-20T23:11:30.798Z,95967.84
2022-08-20T23:14:01.430Z,95936.63
2022-08-20T23:16:38.433Z,95961.88
2022-08-20T23:19:07.479Z,95958.94
2022-08-20T23:21:45.811Z,95955.53
2022-08-20T23:24:19.663Z,95956.03
2022-08-20T23:26:53.263Z,95953.78
2022-08-20T23:29:25.462Z,95939.19
2022-08-20T23:31:54.935Z,95945.34
2022-08-20T23:34:23.451Z,95936.28
2022-08-20T23:36:53.712Z,95941.97
2022-08-20T23:39:22.490Z,95943.91
2022-08-20T23:41:51.014Z,95937.91
2022-08-20T23:44:25.853Z,95920.91
2022-08-20T23:47:01.959Z,95936.63
2022-08-20T23:49:34.559Z,95935.31
2022-08-20T23:52:33.972Z,95934.69
2022-08-20T23:55:02.471Z,95931.09
2022-08-20T23:57:37.793Z,95933.22
